Sandy, OR

8:17 AM PDT on March 24, 2017 (GMT -0700)
Eastman Park | | Change Station
Active Advisory: Flood Warning

Elev 310 ft 45.51 °N, 122.44 °W | Updated 7 minutes ago

Rain
Rain
46.2 °F
Feels Like 46.2 °F
N
1.0
Wind Variable Wind from ESE
Gusts 1.0 mph

Today
High -- | Low -- °F
--% Chance of Precip.
Yesterday
High -- | Low -- °F
Precip. -- in
Pressure 29.86 in
Visibility 8.0 miles
Clouds Few 2000 ft
Overcast 4200 ft
Dew Point 40.0 °F
Humidity 79%
Rainfall 0.30 in
Snow Depth Not available.
7:03 AM 7:27 PM
Waning Crescent, 14% visible
METAR KTTD 241453Z 08006KT 8SM -RA FEW020 OVC042 08/07 A2986 RMK AO2 SLP111 P0012 60031 T00830072 51009
Pressure 29.86 in
Visibility 8.0 miles
Clouds Few 2000 ft
Overcast 4200 ft
Dew Point 40.0 °F
Humidity 79%
Rainfall 0.30 in
Snow Depth Not available.
7:03 AM 7:27 PM
Waning Crescent, 14% visible
METAR KTTD 241453Z 08006KT 8SM -RA FEW020 OVC042 08/07 A2986 RMK AO2 SLP111 P0012 60031 T00830072 51009

Get Your Daily Forecast Email!

Thanks for signing up!

Be on the lookout for a verification email in your inbox.

You'll start receiving severe weather alerts in your inbox..

×

10-Day Weather Forecast

Almanac

Astronomy

Mar. 24, 2017 Rise Set
Actual Time
Civil Twilight
Nautical Twilight
Astronomical Twilight
Moon
Length of Visible Light
Length of Day
Tomorrow will be .
, % of the Moon is Illuminated

Today's Extremes

State Highs State Lows

Community

WunderPhotos

Upload Photos

1,962,540 photos uploaded!

WunderBlog® & News

Nearby

Air Quality

  Air Quality AQ Index Pollutant
Not available.

Snow Depth

Station Depth Elevation

Earthquake Activity

City Distance Mag. Time & Date
Minimum magnitude displayed is 2.5.

Earthquake Activity

City Distance Mag. Time & Date
Minimum magnitude displayed is 2.5.

Coastal Water Temperatures

Place Temperature

Stations

Nearby Weather Stations

Station Location Temp. Windchill Dew Point Humidity Wind Precip. Elev Updated Type
                   

Watches & Warnings

Flood Warning
Issued: 4:08 PM PDT Mar. 23, 2017 – National Weather Service

The Flood Warning continues for
the Columbia River at Vancouver.
* At 4 PM Thursday the stage was... 16.8 feet.
* Flood stage is 16.0 feet.
* Forecast... this river will fluctuate between 16.5 and 17.2 feet
through Sunday.
* Impact... above 17 feet, expect flooding of some lowland access
roads, parking areas, and trails in the Portland and Vancouver
area, including Sauvie Island and Vancouver Lake. Access to some
house-boat communities may be impaired.


Lat... Lon 4555 12228 4567 12265 4576 12274 4576 12286 4556 12269